Muse, Oklahoma
Current Conditions -  °F | °C
As of 8:15 AM on Saturday 20 Dec 2014 (Local Time) from KRKR Reporting Station
Haze Haze  
Wind Chill: 42°   Ceiling: 1300
Heat Index: 42°   Visibility: 1.7mi
Dew Point: 40°   Wind: 0mph
Humidity: 95%   Direction: NA
Pressure: 30.26"   Gusts: NA
Location:  34.67°N, 94.76°W
Report Text: KRKR 201415Z AUTO 00000KT 1 3/4SM BR SCT003 OVC013 06/05 A3026 RMK AO2 T00550047
Loading
Personal Weather Stations






























Interactive Weather Map New forecast layout! Learn more

10-Day Weather Forecast

Advertisements
Track Severe Weather on mobile